Airport ICAO


14:05 UTC

27°C

Clear skies


An affordable passengers' Moving Map for your aircraft. Made for the iPad and the iPhone
More information here

LFTH Le Palyvestre


Hyeres FRANCE   VFR CAVOK


METAR LFTH 231400Z AUTO 22009KT CAVOK 27/16 Q1017 NOSIG 0h05min

TAF AMD LFTH 230935Z 2309/2409 VRB05KT CAVOK BECMG 2310/2312 21010KT BECMG 2315/2317 27013KT BECMG 2321/2323 31015KT TEMPO 2400/2408 30016G26KT BECMG 2408/2409 36010KT 4h30min





NOTAMS

OPEN